Time;durP1;ratioP1;P1;durP2;ratioP2;P2;SDS_P1;SDS_P2;PMS_P1;PMS_P2;Temp;Humidity;BMP_temperature;BMP_pressure;BME280_temperature;BME280_humidity;BME280_pressure;Samples;Min_cycle;Max_cycle;Signal;HPM_P1;HPM_P2
2022/08/06 00:00:10;;;;;;;24.73;8.07;;;;;;;18.29;80.08;100314.13;4831752;29;20372;-46
2022/08/06 00:02:41;;;;;;;27.53;8.30;;;;;;;18.16;80.29;100316.50;4831606;29;20288;-48
2022/08/06 00:05:13;;;;;;;30.77;8.03;;;;;;;18.03;80.81;100316.22;4831663;29;20577;-48
2022/08/06 00:07:56;;;;;;;28.23;8.23;;;;;;;17.88;81.33;100322.22;4831476;29;20306;-50
2022/08/06 00:10:31;;;;;;;21.10;7.07;;;;;;;17.67;81.99;100297.56;4831559;29;20320;-46
2022/08/06 00:13:04;;;;;;;29.60;7.70;;;;;;;17.74;83.19;100324.59;4830980;29;20300;-49
2022/08/06 00:15:43;;;;;;;28.53;8.70;;;;;;;17.68;83.90;100331.00;4830539;29;20283;-48
2022/08/06 00:18:33;;;;;;;23.47;8.33;;;;;;;17.12;84.56;100253.31;4829315;29;20499;-51
2022/08/06 00:21:07;;;;;;;28.43;8.57;;;;;;;17.56;85.42;100331.56;4830405;29;20607;-48
2022/08/06 00:23:58;;;;;;;26.43;9.17;;;;;;;17.48;86.24;100329.25;4829721;29;20280;-49
2022/08/06 00:26:30;;;;;;;28.07;10.20;;;;;;;17.42;87.14;100334.78;4828711;29;20580;-48
2022/08/06 00:29:00;;;;;;;30.03;9.33;;;;;;;17.39;87.75;100333.13;4830202;29;20322;-46
2022/08/06 00:31:33;;;;;;;29.57;9.23;;;;;;;17.34;88.34;100331.63;4830416;29;20284;-48
2022/08/06 00:34:09;;;;;;;26.13;8.97;;;;;;;17.40;88.71;100326.09;4828564;29;20330;-48
2022/08/06 00:36:43;;;;;;;28.30;9.93;;;;;;;17.35;88.89;100322.78;4830607;29;20288;-52
2022/08/06 00:39:17;;;;;;;28.17;9.87;;;;;;;17.21;89.20;100321.59;4831120;29;20298;-47
2022/08/06 00:41:48;;;;;;;32.50;10.03;;;;;;;17.07;89.71;100317.81;4830886;29;20588;-49
2022/08/06 00:44:19;;;;;;;32.57;9.60;;;;;;;17.07;90.51;100331.88;4830925;29;20352;-49
2022/08/06 00:47:00;;;;;;;32.37;9.67;;;;;;;17.04;91.17;100332.00;4830857;29;20361;-47
2022/08/06 00:49:40;;;;;;;30.97;12.03;;;;;;;17.02;91.51;100325.94;4831100;29;20492;-47
2022/08/06 00:52:20;;;;;;;36.35;10.65;;;;;;;17.01;91.86;100324.22;4830582;29;20302;-50
2022/08/06 00:54:55;;;;;;;28.33;10.07;;;;;;;17.04;92.29;100324.09;4830918;29;20054;-48
2022/08/06 00:57:25;;;;;;;33.17;10.37;;;;;;;17.07;92.74;100323.94;4830678;29;20298;-51
2022/08/06 00:59:59;;;;;;;30.20;9.97;;;;;;;17.07;92.48;100320.47;4830764;29;20288;-47
2022/08/06 01:02:30;;;;;;;31.33;10.40;;;;;;;17.05;92.72;100315.25;4824214;29;20310;-51
2022/08/06 01:05:01;;;;;;;32.70;10.83;;;;;;;16.98;92.70;100319.09;4818510;29;20319;-48
2022/08/06 01:07:54;;;;;;;40.67;11.30;;;;;;;16.92;93.04;100314.03;4823235;29;20292;-48
2022/08/06 01:10:26;;;;;;;40.50;11.37;;;;;;;16.85;93.27;100313.47;4812298;29;20320;-49
2022/08/06 01:13:10;;;;;;;32.93;9.87;;;;;;;16.81;93.64;100310.06;4822308;29;20356;-47
2022/08/06 01:16:04;;;;;;;36.70;11.67;;;;;;;16.86;94.05;100303.75;4830401;29;20573;-52
2022/08/06 01:18:47;;;;;;;31.43;10.87;;;;;;;16.77;94.37;100295.28;4830605;29;20291;-52
2022/08/06 01:21:51;;;;;;;38.75;10.35;;;;;;;16.85;94.66;100302.91;4830588;29;20315;-49
2022/08/06 01:25:04;;;;;;;29.40;9.97;;;;;;;16.83;94.75;100309.16;4830208;29;20111;-49
2022/08/06 01:27:45;;;;;;;29.53;10.43;;;;;;;16.81;94.92;100310.06;4830378;29;20331;-52
2022/08/06 01:30:18;;;;;;;35.20;11.20;;;;;;;16.75;95.10;100297.13;4830310;29;20319;-53
2022/08/06 01:33:02;;;;;;;35.13;10.53;;;;;;;16.78;95.29;100297.00;4830383;29;20572;-51
2022/08/06 01:35:49;;;;;;;27.83;10.20;;;;;;;16.69;95.46;100286.78;4830425;29;20522;-50
2022/08/06 01:38:28;;;;;;;29.13;11.73;;;;;;;16.70;95.43;100303.47;4824948;29;20093;-51
2022/08/06 01:41:03;;;;;;;25.60;10.27;;;;;;;16.63;95.48;100302.03;4830121;29;20325;-53
2022/08/06 01:43:38;;;;;;;26.50;11.00;;;;;;;16.58;95.78;100299.59;4830045;29;20296;-53
2022/08/06 01:46:30;;;;;;;32.37;10.63;;;;;;;16.63;96.41;100297.63;4830070;29;20284;-53
2022/08/06 01:49:04;;;;;;;23.97;10.23;;;;;;;16.54;96.76;100274.25;4829980;29;20441;-50
2022/08/06 01:51:57;;;;;;;28.83;10.63;;;;;;;16.71;96.79;100284.97;4830023;29;20317;-52
2022/08/06 01:54:47;;;;;;;25.47;9.63;;;;;;;16.69;96.24;100281.53;4829769;29;20326;-50
2022/08/06 01:57:24;;;;;;;29.63;11.10;;;;;;;16.69;96.42;100281.53;4825126;29;20323;-50
2022/08/06 02:00:18;;;;;;;26.30;10.00;;;;;;;16.59;96.11;100261.72;4826112;29;20317;-49
2022/08/06 02:03:02;;;;;;;26.07;9.10;;;;;;;16.68;96.25;100269.25;4826473;29;20335;-48
2022/08/06 02:05:34;;;;;;;23.70;9.47;;;;;;;16.72;96.10;100276.09;4825941;29;20793;-50
2022/08/06 02:08:26;;;;;;;30.02;10.48;;;;;;;16.75;96.00;100275.16;4826075;29;20307;-48
2022/08/06 02:11:11;;;;;;;28.67;10.80;;;;;;;16.67;96.10;100267.53;4825382;29;20069;-52
2022/08/06 02:14:04;;;;;;;28.53;10.67;;;;;;;16.79;96.20;100272.31;4826224;29;20284;-48
2022/08/06 02:16:40;;;;;;;26.77;10.23;;;;;;;16.80;96.23;100268.78;4826113;29;20659;-52
2022/08/06 02:19:14;;;;;;;28.93;10.13;;;;;;;16.87;96.65;100273.78;4825495;29;20291;-52
2022/08/06 02:21:49;;;;;;;23.83;10.63;;;;;;;16.93;96.59;100270.91;4825850;29;20518;-52
2022/08/06 02:24:28;;;;;;;33.35;14.80;;;;;;;17.03;96.66;100264.31;4826199;29;20280;-50
2022/08/06 02:27:02;;;;;;;30.17;11.33;;;;;;;17.14;96.49;100267.31;4826616;29;20099;-49
2022/08/06 02:29:34;;;;;;;26.97;10.10;;;;;;;17.24;96.43;100262.50;4824831;29;20550;-51
2022/08/06 02:32:27;;;;;;;22.27;10.33;;;;;;;17.25;95.68;100262.44;4825510;29;20287;-50
2022/08/06 02:34:58;;;;;;;24.07;10.17;;;;;;;17.29;95.63;100270.22;4825768;29;20330;-49
2022/08/06 02:37:33;;;;;;;25.17;10.40;;;;;;;17.30;95.27;100256.09;4829116;29;20580;-52
2022/08/06 02:40:29;;;;;;;26.97;9.57;;;;;;;17.29;94.83;100263.16;4829045;29;20457;-50
2022/08/06 02:43:06;;;;;;;25.07;9.47;;;;;;;17.22;94.36;100259.94;4828919;29;20299;-52
2022/08/06 02:45:45;;;;;;;34.77;11.67;;;;;;;17.15;94.33;100263.78;4828950;29;20302;-47
2022/08/06 02:48:34;;;;;;;25.93;11.63;;;;;;;17.17;94.51;100266.34;4828970;29;20576;-49
2022/08/06 02:51:10;;;;;;;34.07;10.17;;;;;;;17.20;94.78;100269.72;4829286;29;20288;-50
2022/08/06 02:54:06;;;;;;;23.40;10.17;;;;;;;17.21;95.40;100249.44;4829294;29;20287;-50
2022/08/06 02:56:43;;;;;;;22.60;8.97;;;;;;;17.25;95.06;100259.81;4829310;29;20299;-50
2022/08/06 02:59:18;;;;;;;22.87;9.47;;;;;;;17.22;94.74;100253.78;4829226;29;20291;-49
2022/08/06 03:01:53;;;;;;;26.13;10.37;;;;;;;17.23;95.09;100244.97;4829006;29;20335;-47
2022/08/06 03:04:27;;;;;;;22.53;9.40;;;;;;;17.24;95.09;100258.06;4829078;29;20288;-48
2022/08/06 03:07:07;;;;;;;24.77;10.07;;;;;;;17.28;95.09;100247.41;4829337;29;20599;-49
2022/08/06 03:09:58;;;;;;;24.80;11.30;;;;;;;17.32;95.15;100248.97;4829277;29;20367;-48
2022/08/06 03:12:29;;;;;;;25.33;9.90;;;;;;;17.34;95.24;100249.75;4828813;29;20285;-48
2022/08/06 03:15:03;;;;;;;25.77;9.97;;;;;;;17.34;95.48;100242.69;4829160;29;20356;-50
2022/08/06 03:17:42;;;;;;;31.30;14.57;;;;;;;17.52;95.39;100256.84;4829026;29;20355;-48
2022/08/06 03:20:22;;;;;;;55.33;33.43;;;;;;;17.62;95.78;100242.31;4829207;29;20299;-53
2022/08/06 03:22:58;;;;;;;54.73;36.40;;;;;;;17.48;95.68;100202.44;4828873;29;20323;-47
2022/08/06 03:25:33;;;;;;;31.90;18.67;;;;;;;17.83;95.49;100239.63;4828531;29;20291;-51
2022/08/06 03:28:12;;;;;;;27.53;12.50;;;;;;;17.87;94.84;100235.91;4828460;29;20291;-54
2022/08/06 03:30:52;;;;;;;25.13;11.73;;;;;;;17.74;93.79;100240.03;4828650;29;20287;-47
2022/08/06 03:33:25;;;;;;;37.60;19.33;;;;;;;17.83;93.65;100239.63;4828653;29;20291;-49
2022/08/06 03:36:18;;;;;;;41.93;23.53;;;;;;;17.73;92.75;100251.53;4828428;29;20447;-50
2022/08/06 03:38:55;;;;;;;44.37;23.50;;;;;;;17.66;93.10;100254.44;4828301;29;20368;-47
2022/08/06 03:41:29;;;;;;;48.03;26.53;;;;;;;17.65;93.08;100242.16;4828582;29;20492;-47
2022/08/06 03:44:09;;;;;;;43.77;23.37;;;;;;;17.69;93.16;100243.72;4828498;29;20296;-49
2022/08/06 03:46:44;;;;;;;57.20;29.00;;;;;;;17.68;93.21;100242.00;4827775;29;20316;-48
2022/08/06 03:49:21;;;;;;;35.90;19.73;;;;;;;17.66;93.55;100241.22;4828374;29;20603;-48
2022/08/06 03:52:15;;;;;;;41.17;23.17;;;;;;;17.61;93.46;100245.88;4827950;29;20295;-48
2022/08/06 03:54:54;;;;;;;51.37;29.37;;;;;;;17.57;93.62;100244.31;4809824;29;20728;-49
2022/08/06 03:57:28;;;;;;;38.23;19.30;;;;;;;17.51;93.66;100244.56;4809965;29;20303;-47
2022/08/06 04:00:18;;;;;;;27.47;13.00;;;;;;;17.42;94.09;100239.69;4809428;29;20337;-47
2022/08/06 04:02:58;;;;;;;21.67;10.33;;;;;;;17.45;94.21;100244.88;4809243;29;20319;-51
2022/08/06 04:05:33;;;;;;;31.43;9.27;;;;;;;17.36;94.40;100245.25;4810046;29;20300;-49
2022/08/06 04:08:13;;;;;;;21.25;8.73;;;;;;;17.28;94.27;100253.53;4808834;29;20389;-52
2022/08/06 04:10:48;;;;;;;21.40;7.87;;;;;;;17.04;94.13;100229.91;4807909;29;20063;-52
2022/08/06 04:13:27;;;;;;;19.83;7.80;;;;;;;17.10;93.90;100246.41;4808746;29;20329;-49
2022/08/06 04:16:18;;;;;;;29.93;8.57;;;;;;;16.97;93.94;100227.59;4810101;29;20296;-50
2022/08/06 04:19:06;;;;;;;25.13;8.67;;;;;;;17.10;93.96;100244.66;4810061;29;20288;-49
2022/08/06 04:21:38;;;;;;;24.53;8.20;;;;;;;17.18;94.40;100247.78;4809648;29;20351;-48
2022/08/06 04:24:32;;;;;;;22.20;8.83;;;;;;;17.24;94.25;100247.50;4809630;29;20288;-50
2022/08/06 04:27:06;;;;;;;25.77;10.33;;;;;;;17.21;93.84;100247.66;4809716;29;20333;-49
2022/08/06 04:29:39;;;;;;;29.47;12.70;;;;;;;17.23;94.28;100245.81;4809543;29;20353;-48
2022/08/06 04:32:29;;;;;;;21.57;8.60;;;;;;;17.22;93.96;100243.22;4809273;29;21053;-48
2022/08/06 04:35:05;;;;;;;26.37;9.00;;;;;;;17.15;93.61;100233.88;4809993;29;20599;-50
2022/08/06 04:37:56;;;;;;;30.60;12.00;;;;;;;17.07;93.58;100234.19;4809759;29;20288;-49
2022/08/06 04:40:32;;;;;;;26.63;10.37;;;;;;;17.00;93.91;100235.41;4809567;29;20323;-49
2022/08/06 04:43:23;;;;;;;31.10;12.73;;;;;;;16.93;94.37;100226.03;4809342;29;20319;-48
2022/08/06 04:46:14;;;;;;;31.10;12.77;;;;;;;16.86;94.21;100214.88;4809574;29;20277;-52
2022/08/06 04:48:49;;;;;;;24.40;10.37;;;;;;;16.81;94.30;100223.00;4809189;29;20640;-52
2022/08/06 04:51:29;;;;;;;33.03;14.20;;;;;;;16.70;94.59;100214.66;4809371;29;20307;-49
2022/08/06 04:54:20;;;;;;;33.43;16.20;;;;;;;16.68;95.01;100208.59;4824920;29;20292;-48
2022/08/06 04:57:00;;;;;;;29.98;16.45;;;;;;;16.71;95.60;100205.81;4827421;29;20299;-51
2022/08/06 04:59:51;;;;;;;25.83;14.93;;;;;;;16.78;96.06;100215.22;4825683;29;20103;-51
2022/08/06 05:02:21;;;;;;;19.60;8.53;;;;;;;16.84;96.33;100221.16;4827368;29;20356;-51
2022/08/06 05:04:55;;;;;;;29.70;11.70;;;;;;;16.87;96.31;100215.72;4827358;29;20335;-48
2022/08/06 05:07:28;;;;;;;27.50;12.37;;;;;;;16.85;96.27;100222.84;4827241;29;20343;-51
2022/08/06 05:10:20;;;;;;;20.53;9.37;;;;;;;16.80;96.03;100229.19;4827352;29;20325;-47
2022/08/06 05:12:59;;;;;;;24.37;9.30;;;;;;;16.85;96.43;100217.56;4827283;29;20298;-49
2022/08/06 05:15:40;;;;;;;20.08;9.65;;;;;;;16.85;96.34;100213.19;4827248;29;20299;-48
2022/08/06 05:18:24;;;;;;;24.00;11.30;;;;;;;16.87;96.42;100210.44;4826949;29;20046;-49
2022/08/06 05:21:35;;;;;;;25.77;12.10;;;;;;;16.88;96.28;100215.69;4825807;29;20506;-49
2022/08/06 05:24:26;;;;;;;31.63;10.13;;;;;;;16.84;96.26;100215.88;4826942;29;20288;-49
2022/08/06 05:27:08;;;;;;;20.97;10.30;;;;;;;16.85;96.79;100228.13;4826835;29;20348;-50
2022/08/06 05:29:42;;;;;;;24.20;10.63;;;;;;;16.77;96.80;100221.38;4827099;29;20319;-49
2022/08/06 05:32:23;;;;;;;52.27;31.50;;;;;;;16.84;96.92;100231.69;4826887;29;20306;-51
2022/08/06 05:34:54;;;;;;;39.83;19.77;;;;;;;16.87;97.24;100234.19;4826816;29;20344;-47
2022/08/06 05:37:25;;;;;;;28.77;12.03;;;;;;;16.81;97.22;100223.00;4826438;29;20303;-50
2022/08/06 05:40:15;;;;;;;27.97;14.17;;;;;;;16.81;97.20;100232.69;4826963;29;20298;-49
2022/08/06 05:43:04;;;;;;;24.57;10.50;;;;;;;16.73;97.07;100240.91;4826592;29;20499;-50
2022/08/06 05:45:37;;;;;;;26.40;10.47;;;;;;;16.74;97.13;100245.25;4826387;29;20386;-52
2022/08/06 05:48:09;;;;;;;24.40;11.67;;;;;;;16.76;97.20;100239.91;4826596;29;20304;-48
2022/08/06 05:50:48;;;;;;;27.97;10.93;;;;;;;16.79;97.32;100251.22;4826749;29;20284;-52
2022/08/06 05:53:24;;;;;;;30.30;14.07;;;;;;;16.78;97.21;100249.50;4826635;29;20371;-50
2022/08/06 05:56:20;;;;;;;39.80;23.57;;;;;;;16.79;97.35;100251.22;4826761;29;20231;-50
2022/08/06 05:59:12;;;;;;;27.37;13.63;;;;;;;16.83;97.27;100261.66;4826122;29;20588;-49
2022/08/06 06:02:07;;;;;;;28.53;11.87;;;;;;;16.86;97.56;100264.16;4826457;29;20557;-49
2022/08/06 06:04:38;;;;;;;31.57;12.07;;;;;;;16.92;97.64;100255.97;4826404;29;20407;-50
2022/08/06 06:07:30;;;;;;;34.47;12.77;;;;;;;16.99;97.91;100262.72;4826101;29;20288;-52
2022/08/06 06:10:23;;;;;;;28.40;10.97;;;;;;;16.98;97.15;100258.38;4825854;29;20291;-48
2022/08/06 06:12:54;;;;;;;24.10;11.17;;;;;;;16.98;97.13;100261.00;4826412;29;20426;-48
2022/08/06 06:15:25;;;;;;;25.17;10.80;;;;;;;16.99;96.83;100262.72;4826236;29;20452;-50
2022/08/06 06:18:28;;;;;;;26.70;11.03;;;;;;;16.95;96.51;100264.63;4826375;29;20364;-48
2022/08/06 06:21:12;;;;;;;36.60;17.40;;;;;;;16.98;96.43;100266.28;4826730;29;20303;-48
2022/08/06 06:24:07;;;;;;;31.90;12.60;;;;;;;16.94;96.21;100256.78;4825949;29;20312;-49
2022/08/06 06:26:47;;;;;;;35.00;12.83;;;;;;;16.78;95.93;100246.88;4826438;29;20297;-47
2022/08/06 06:29:32;;;;;;;27.60;13.57;;;;;;;16.91;95.80;100264.84;4825943;29;20303;-49
2022/08/06 06:32:38;;;;;;;34.10;17.90;;;;;;;16.87;95.60;100268.50;4826108;29;20296;-49
2022/08/06 06:35:22;;;;;;;43.07;21.30;;;;;;;16.85;95.42;100265.06;4826135;29;20362;-48
2022/08/06 06:38:02;;;;;;;27.67;13.87;;;;;;;16.84;95.50;100263.38;4826107;29;20379;-52
2022/08/06 06:40:47;;;;;;;31.52;13.40;;;;;;;16.81;95.29;100270.50;4826186;29;20284;-49
2022/08/06 06:43:39;;;;;;;33.00;12.93;;;;;;;16.78;95.27;100259.22;4825692;29;20114;-47
2022/08/06 06:46:22;;;;;;;30.23;15.57;;;;;;;16.83;95.10;100256.38;4826369;29;20307;-49
2022/08/06 06:49:16;;;;;;;31.53;12.83;;;;;;;16.87;94.99;100258.81;4826136;29;20356;-49
2022/08/06 06:52:12;;;;;;;22.52;10.32;;;;;;;16.93;95.22;100268.28;4826081;29;20314;-50
2022/08/06 06:54:59;;;;;;;22.10;8.73;;;;;;;17.01;95.14;100250.31;4825941;29;20255;-51
2022/08/06 06:57:45;;;;;;;30.10;10.07;;;;;;;17.05;94.81;100246.63;4826205;29;20319;-49
2022/08/06 07:00:16;;;;;;;26.93;9.17;;;;;;;17.12;94.65;100242.75;4825995;29;20314;-49
2022/08/06 07:03:10;;;;;;;23.30;9.17;;;;;;;17.14;94.50;100238.28;4825503;29;20295;-48
2022/08/06 07:05:43;;;;;;;28.80;10.20;;;;;;;17.13;94.63;100233.94;4826221;29;20359;-49
2022/08/06 07:08:41;;;;;;;27.10;9.97;;;;;;;17.08;94.17;100235.94;4825813;29;20449;-49
2022/08/06 07:11:12;;;;;;;22.90;8.63;;;;;;;17.02;94.22;100241.47;4826106;29;20306;-47
2022/08/06 07:13:52;;;;;;;25.37;9.57;;;;;;;17.00;94.58;100240.69;4825658;29;20288;-48
2022/08/06 07:16:29;;;;;;;37.60;11.03;;;;;;;16.97;94.57;100232.88;4826156;29;20354;-50
2022/08/06 07:19:07;;;;;;;34.33;12.80;;;;;;;16.94;94.76;100225.94;4825911;29;20300;-50
2022/08/06 07:21:42;;;;;;;35.40;13.80;;;;;;;17.01;94.81;100234.47;4825864;29;21013;-47
2022/08/06 07:24:25;;;;;;;34.10;18.03;;;;;;;16.95;94.61;100240.88;4828854;29;20611;-49
2022/08/06 07:27:08;;;;;;;31.47;12.20;;;;;;;16.86;94.53;100237.78;4828871;29;20292;-49
2022/08/06 07:29:46;;;;;;;27.13;9.73;;;;;;;16.73;93.79;100240.91;4828693;29;20288;-50
2022/08/06 07:32:29;;;;;;;28.60;10.87;;;;;;;16.63;93.92;100244.84;4828922;29;20653;-49
2022/08/06 07:35:01;;;;;;;31.23;10.87;;;;;;;16.32;93.69;100203.03;4828852;29;20311;-49
2022/08/06 07:37:46;;;;;;;41.83;10.97;;;;;;;16.60;93.90;100250.25;4828616;29;20344;-49
2022/08/06 07:40:26;;;;;;;29.10;11.60;;;;;;;16.43;94.32;100221.09;4828544;29;20291;-50
2022/08/06 07:43:04;;;;;;;36.57;11.77;;;;;;;16.49;94.28;100232.22;4828695;29;20287;-52
2022/08/06 07:45:55;;;;;;;36.60;15.40;;;;;;;16.52;94.31;100236.50;4828586;29;20295;-51
2022/08/06 07:48:32;;;;;;;34.90;16.83;;;;;;;16.56;94.24;100238.09;4828463;29;20591;-49
2022/08/06 07:51:06;;;;;;;28.52;12.48;;;;;;;16.64;94.06;100254.47;4828718;29;20292;-49
2022/08/06 07:53:39;;;;;;;30.17;14.70;;;;;;;16.56;93.84;100243.38;4828537;29;20066;-47
2022/08/06 07:56:29;;;;;;;27.10;12.47;;;;;;;16.59;94.04;100257.28;4828113;29;20299;-50
2022/08/06 07:59:00;;;;;;;40.90;12.23;;;;;;;16.56;93.86;100259.22;4828099;29;20298;-49
2022/08/06 08:01:33;;;;;;;33.13;13.87;;;;;;;16.50;94.01;100259.44;4828133;29;20567;-48
2022/08/06 08:07:14;;;;;;;29.02;10.13;;;;;;;16.42;93.85;100262.41;4828234;29;20511;-48
2022/08/06 08:09:46;;;;;;;36.50;9.93;;;;;;;16.14;94.16;100220.47;4827892;29;20070;-51
2022/08/06 08:12:34;;;;;;;32.30;9.57;;;;;;;16.42;94.52;100267.69;4828098;29;20367;-49
2022/08/06 08:15:08;;;;;;;30.33;9.63;;;;;;;16.39;94.54;100263.38;4827927;29;20295;-50
2022/08/06 08:17:50;;;;;;;26.23;9.50;;;;;;;16.37;94.72;100275.78;4828125;29;20296;-50
2022/08/06 08:20:29;;;;;;;26.10;9.40;;;;;;;16.35;94.89;100276.78;4827824;29;20917;-52
2022/08/06 08:23:05;;;;;;;32.03;9.33;;;;;;;16.33;94.77;100275.97;4827033;29;20303;-51
2022/08/06 08:25:59;;;;;;;25.77;8.77;;;;;;;16.24;95.01;100269.28;4827067;29;20342;-52
2022/08/06 08:28:31;;;;;;;32.23;9.67;;;;;;;16.31;94.82;100281.31;4826710;29;20360;-48
2022/08/06 08:31:03;;;;;;;29.63;8.53;;;;;;;16.20;94.81;100272.97;4826915;29;20370;-51
2022/08/06 08:33:54;;;;;;;25.93;8.80;;;;;;;16.31;94.64;100291.84;4827262;29;20287;-52
2022/08/06 08:36:25;;;;;;;30.23;10.30;;;;;;;16.30;94.79;100283.97;4827655;29;20284;-49
2022/08/06 08:39:01;;;;;;;28.33;9.03;;;;;;;16.32;94.69;100288.28;4827566;29;20495;-50
2022/08/06 08:41:42;;;;;;;28.03;9.43;;;;;;;16.30;94.80;100284.88;4827337;29;20589;-48
2022/08/06 08:44:25;;;;;;;31.20;9.07;;;;;;;16.31;95.19;100281.31;4826266;29;20718;-54
2022/08/06 08:46:58;;;;;;;29.10;10.20;;;;;;;16.27;95.03;100279.69;4826634;29;20371;-51
2022/08/06 08:49:41;;;;;;;29.77;9.97;;;;;;;16.26;95.29;100283.25;4827349;29;20296;-50
2022/08/06 08:52:19;;;;;;;29.00;9.00;;;;;;;16.24;95.29;100279.81;4826391;29;20342;-46
2022/08/06 08:54:53;;;;;;;31.17;9.33;;;;;;;16.28;95.26;100291.97;4827240;29;20565;-48
2022/08/06 08:57:26;;;;;;;29.30;12.40;;;;;;;16.25;95.19;100297.38;4827092;29;20330;-48
2022/08/06 09:00:18;;;;;;;29.33;12.93;;;;;;;16.25;95.28;100302.66;4827244;29;20335;-50
2022/08/06 09:02:55;;;;;;;34.60;13.82;;;;;;;16.22;95.25;100293.97;4826915;29;20287;-51
2022/08/06 09:05:26;;;;;;;27.97;9.87;;;;;;;16.13;95.42;100287.31;4826882;29;20347;-50
2022/08/06 09:08:04;;;;;;;27.37;10.07;;;;;;;16.10;95.34;100282.13;4827099;29;20299;-50
2022/08/06 09:10:48;;;;;;;24.20;10.47;;;;;;;16.09;95.54;100296.25;4827229;29;20288;-50
2022/08/06 09:13:21;;;;;;;26.90;11.57;;;;;;;16.08;95.68;100305.06;4825574;29;20306;-51
2022/08/06 09:16:13;;;;;;;36.63;11.00;;;;;;;16.04;95.89;100282.38;4827092;29;20449;-50
2022/08/06 09:18:48;;;;;;;32.87;10.23;;;;;;;16.07;95.81;100292.78;4826109;29;20319;-51
2022/08/06 09:21:19;;;;;;;27.13;9.30;;;;;;;16.03;96.00;100294.72;4826978;29;20490;-52
2022/08/06 09:23:51;;;;;;;28.47;9.37;;;;;;;15.99;96.00;100305.41;4826782;29;20296;-52
2022/08/06 09:26:27;;;;;;;32.17;10.10;;;;;;;15.94;96.13;100303.81;4826206;29;20494;-50
2022/08/06 09:29:22;;;;;;;30.20;9.80;;;;;;;15.95;96.24;100305.53;4826674;29;20290;-49
2022/08/06 09:32:06;;;;;;;30.03;9.87;;;;;;;15.92;96.25;100300.38;4826664;29;20318;-53
2022/08/06 09:34:47;;;;;;;29.47;10.27;;;;;;;15.88;96.28;100293.50;4826898;29;20351;-49
2022/08/06 09:37:29;;;;;;;36.90;10.10;;;;;;;15.74;96.53;100282.63;4826149;29;20280;-50
2022/08/06 09:40:20;;;;;;;28.23;10.67;;;;;;;15.79;96.52;100296.47;4826432;29;20272;-50
2022/08/06 09:42:52;;;;;;;28.87;12.17;;;;;;;15.80;96.67;100295.59;4826639;29;20355;-47
2022/08/06 09:45:26;;;;;;;35.00;11.80;;;;;;;15.78;96.64;100296.56;4825975;29;20345;-47
2022/08/06 09:48:14;;;;;;;26.93;11.17;;;;;;;15.72;96.82;100309.03;4827294;29;20299;-49
2022/08/06 09:50:51;;;;;;;34.15;11.43;;;;;;;15.72;96.80;100305.53;4826198;29;20311;-50
2022/08/06 09:53:22;;;;;;;27.20;9.40;;;;;;;15.70;96.95;100315.25;4826536;29;20113;-47
2022/08/06 09:55:55;;;;;;;29.07;13.03;;;;;;;15.68;97.03;100298.66;4826476;29;20296;-51
2022/08/06 09:58:35;;;;;;;28.50;10.20;;;;;;;15.37;96.97;100244.44;4826203;29;20352;-49
2022/08/06 10:01:17;;;;;;;25.10;9.97;;;;;;;15.67;96.95;100299.53;4826173;29;20288;-52
2022/08/06 10:03:54;;;;;;;26.23;8.93;;;;;;;15.72;97.10;100300.25;4826566;29;20315;-48
2022/08/06 10:06:52;;;;;;;27.60;9.47;;;;;;;15.72;97.12;100297.63;4826566;29;20299;-48
2022/08/06 10:09:24;;;;;;;30.07;10.70;;;;;;;15.72;97.00;100298.50;4826062;29;20287;-47
2022/08/06 10:12:24;;;;;;;27.97;10.57;;;;;;;15.54;97.11;100268.38;4826551;29;20851;-51
2022/08/06 10:14:56;;;;;;;26.23;9.97;;;;;;;15.69;97.07;100302.97;4826108;29;20303;-47
2022/08/06 10:17:29;;;;;;;29.67;11.23;;;;;;;15.69;97.13;100297.72;4826500;29;20299;-49
2022/08/06 10:20:22;;;;;;;35.97;10.63;;;;;;;15.70;97.15;100295.06;4826352;29;20348;-48
2022/08/06 10:22:54;;;;;;;39.10;14.03;;;;;;;15.57;96.83;100282.34;4826060;29;20295;-47
2022/08/06 10:25:29;;;;;;;27.77;11.83;;;;;;;15.71;96.63;100306.47;4825912;29;20371;-48
2022/08/06 10:28:15;;;;;;;36.00;11.97;;;;;;;15.70;96.70;100304.72;4825928;29;20279;-48
2022/08/06 10:30:47;;;;;;;29.93;10.87;;;;;;;15.66;96.47;100308.38;4826347;29;20292;-46
2022/08/06 10:33:20;;;;;;;37.87;11.33;;;;;;;15.64;96.62;100305.78;4826046;29;20283;-48
2022/08/06 10:36:01;;;;;;;31.50;12.27;;;;;;;15.54;96.51;100297.34;4826322;29;20295;-48
2022/08/06 10:38:39;;;;;;;30.37;10.77;;;;;;;15.58;96.90;100311.28;4826055;29;20337;-46
2022/08/06 10:41:22;;;;;;;34.30;11.37;;;;;;;15.54;96.90;100313.16;4825980;29;20343;-47
2022/08/06 10:44:13;;;;;;;30.67;12.07;;;;;;;15.48;97.06;100310.75;4826241;29;20276;-50
2022/08/06 10:46:45;;;;;;;36.13;12.97;;;;;;;15.49;97.37;100307.19;4826377;29;20318;-46
2022/08/06 10:49:17;;;;;;;33.60;12.60;;;;;;;15.50;97.54;100308.94;4825911;29;20489;-46
2022/08/06 10:52:12;;;;;;;42.73;12.07;;;;;;;15.51;97.34;100308.00;4825756;29;20557;-47
2022/08/06 10:54:47;;;;;;;32.77;11.90;;;;;;;15.51;97.57;100310.63;4826064;29;20292;-47
2022/08/06 10:57:21;;;;;;;31.67;10.97;;;;;;;15.49;97.65;100298.44;4828318;29;20580;-48
2022/08/06 11:00:07;;;;;;;32.73;10.97;;;;;;;15.48;97.72;100300.22;4828951;29;20724;-48
2022/08/06 11:02:51;;;;;;;27.13;10.53;;;;;;;15.48;97.72;100294.97;4829397;29;20490;-48
2022/08/06 11:05:29;;;;;;;32.93;10.73;;;;;;;15.47;97.68;100295.84;4828724;29;20460;-50
2022/08/06 11:08:40;;;;;;;32.37;11.17;;;;;;;15.44;97.46;100298.59;4828942;29;20263;-48
2022/08/06 11:11:46;;;;;;;31.67;10.00;;;;;;;15.39;97.72;100311.06;4828885;29;20507;-47
2022/08/06 11:14:38;;;;;;;29.40;10.63;;;;;;;15.38;98.13;100313.78;4829144;29;20288;-47
2022/08/06 11:17:09;;;;;;;34.90;12.77;;;;;;;15.37;98.03;100312.91;4828983;29;20291;-48
2022/08/06 11:19:43;;;;;;;28.83;11.57;;;;;;;15.38;98.07;100309.38;4829366;29;20298;-47
2022/08/06 11:22:39;;;;;;;37.23;12.10;;;;;;;14.93;98.00;100243.41;4828546;29;20359;-46
2022/08/06 11:25:42;;;;;;;33.63;10.70;;;;;;;15.28;98.18;100303.56;4827914;29;20329;-49
2022/08/06 11:28:13;;;;;;;30.73;11.73;;;;;;;15.37;98.26;100307.63;4829037;29;20475;-47
2022/08/06 11:30:46;;;;;;;28.90;11.43;;;;;;;15.37;98.18;100312.03;4828626;29;20321;-48
2022/08/06 11:33:20;;;;;;;33.70;11.87;;;;;;;15.35;98.13;100309.47;4829032;29;20343;-46
2022/08/06 11:35:51;;;;;;;33.60;12.40;;;;;;;15.36;98.04;100310.34;4828002;29;20550;-48
2022/08/06 11:38:55;;;;;;;31.40;11.43;;;;;;;15.37;97.98;100312.03;4828829;29;20291;-47
2022/08/06 11:41:47;;;;;;;37.63;12.10;;;;;;;15.37;98.36;100323.44;4828611;29;20295;-47
2022/08/06 11:44:28;;;;;;;38.33;12.40;;;;;;;15.34;98.17;100320.91;4828497;29;20296;-48
2022/08/06 11:47:10;;;;;;;33.23;12.40;;;;;;;15.34;98.17;100323.53;4827994;29;20399;-46
2022/08/06 11:49:44;;;;;;;35.17;12.43;;;;;;;15.21;98.24;100298.56;4827742;29;20319;-47
2022/08/06 11:52:43;;;;;;;27.10;10.47;;;;;;;15.33;98.44;100316.56;4827371;29;20529;-47
2022/08/06 11:55:17;;;;;;;27.17;10.50;;;;;;;15.15;98.42;100297.03;4827579;29;20418;-48
2022/08/06 11:58:23;;;;;;;31.20;11.07;;;;;;;15.24;98.46;100311.63;4827098;29;20288;-54
2022/08/06 12:00:59;;;;;;;26.20;9.50;;;;;;;15.17;98.32;100310.09;4828154;29;20364;-49
2022/08/06 12:03:50;;;;;;;30.07;11.23;;;;;;;15.13;98.34;100311.16;4828226;29;20284;-48
2022/08/06 12:06:23;;;;;;;33.03;10.70;;;;;;;15.09;98.61;100308.59;4827363;29;20307;-49
2022/08/06 12:09:09;;;;;;;29.07;11.30;;;;;;;15.10;98.60;100305.06;4827786;29;20280;-50
2022/08/06 12:11:52;;;;;;;26.43;10.53;;;;;;;15.12;98.41;100312.03;4828153;29;20322;-47
2022/08/06 12:14:42;;;;;;;25.50;10.57;;;;;;;15.03;98.20;100297.44;4828044;29;20287;-51
2022/08/06 12:17:20;;;;;;;28.97;10.43;;;;;;;15.07;98.35;100304.28;4827849;29;20961;-53